createdAt,value
2019-01-06T00:01:21.624Z,4.30
2019-01-06T00:04:07.953Z,7.03
2019-01-06T00:06:56.119Z,7.57
2019-01-06T00:09:26.195Z,8.40
2019-01-06T00:12:02.950Z,6.63
2019-01-06T00:14:44.868Z,6.90
2019-01-06T00:17:23.819Z,5.63
2019-01-06T00:20:08.696Z,6.03
2019-01-06T00:22:54.967Z,3.90
2019-01-06T00:25:25.050Z,5.60
2019-01-06T00:27:55.144Z,6.57
2019-01-06T00:30:25.204Z,6.00
2019-01-06T00:32:55.283Z,6.07
2019-01-06T00:35:25.339Z,6.10
2019-01-06T00:38:03.897Z,5.43
2019-01-06T00:40:33.964Z,5.87
2019-01-06T00:43:12.880Z,6.33
2019-01-06T00:45:54.669Z,6.70
2019-01-06T00:48:40.479Z,6.40
2019-01-06T00:51:26.799Z,6.07
2019-01-06T00:54:05.924Z,4.40
2019-01-06T00:56:51.896Z,3.07
2019-01-06T00:59:24.932Z,6.10
2019-01-06T01:01:55.038Z,5.60
2019-01-06T01:04:43.021Z,5.70
2019-01-06T01:07:28.264Z,4.70
2019-01-06T01:10:00.831Z,5.47
2019-01-06T01:12:33.380Z,4.30
2019-01-06T01:15:06.352Z,5.00
2019-01-06T01:17:52.660Z,5.50
2019-01-06T01:20:22.722Z,3.90
2019-01-06T01:23:10.946Z,4.40
2019-01-06T01:25:41.033Z,5.13
2019-01-06T01:28:16.619Z,2.80
2019-01-06T01:30:46.712Z,4.30
2019-01-06T01:33:19.186Z,3.93
2019-01-06T01:36:05.529Z,4.03
2019-01-06T01:38:38.538Z,3.77
2019-01-06T01:41:08.628Z,3.50
2019-01-06T01:43:38.727Z,4.13
2019-01-06T01:46:14.480Z,3.23
2019-01-06T01:48:56.055Z,3.40
2019-01-06T01:51:28.834Z,3.90
2019-01-06T01:54:14.914Z,3.80
2019-01-06T01:56:47.795Z,3.00
2019-01-06T01:59:30.047Z,4.03
2019-01-06T02:02:08.610Z,3.60
2019-01-06T02:04:50.595Z,4.10
2019-01-06T02:07:30.959Z,3.80
2019-01-06T02:10:06.759Z,4.63
2019-01-06T02:12:42.347Z,4.50
2019-01-06T02:15:15.072Z,4.80
2019-01-06T02:17:47.655Z,4.20
2019-01-06T02:20:20.247Z,4.27
2019-01-06T02:22:56.048Z,3.57
2019-01-06T02:25:42.558Z,4.00
2019-01-06T02:28:15.035Z,4.07
2019-01-06T02:30:50.889Z,3.60
2019-01-06T02:33:38.851Z,3.67
2019-01-06T02:36:11.340Z,3.17
2019-01-06T02:38:47.072Z,3.80
2019-01-06T02:41:33.308Z,3.50
2019-01-06T02:44:06.058Z,3.50
2019-01-06T02:46:41.655Z,3.73
2019-01-06T02:49:23.786Z,3.33
2019-01-06T02:51:53.872Z,3.10
2019-01-06T02:54:29.862Z,2.33
2019-01-06T02:57:02.611Z,2.20
2019-01-06T02:59:44.102Z,3.13
2019-01-06T03:02:16.907Z,3.17
2019-01-06T03:05:03.287Z,4.00
2019-01-06T03:07:45.500Z,2.10
2019-01-06T03:10:24.332Z,1.87
2019-01-06T03:12:54.404Z,2.50
2019-01-06T03:15:24.479Z,3.03
2019-01-06T03:17:54.539Z,1.80
2019-01-06T03:20:42.435Z,2.57
2019-01-06T03:23:15.184Z,2.70
2019-01-06T03:25:51.195Z,2.43
2019-01-06T03:28:26.994Z,2.60
2019-01-06T03:30:59.553Z,2.37
2019-01-06T03:33:45.600Z,2.57
2019-01-06T03:36:18.406Z,1.30
2019-01-06T03:38:57.307Z,2.00
2019-01-06T03:41:27.373Z,2.03
2019-01-06T03:44:00.181Z,1.80
2019-01-06T03:46:48.088Z,1.80
2019-01-06T03:49:29.895Z,1.97
2019-01-06T03:52:02.641Z,2.60
2019-01-06T03:54:48.779Z,2.20
2019-01-06T03:57:35.204Z,2.30
2019-01-06T04:00:12.154Z,2.60
2019-01-06T04:02:44.925Z,2.20
2019-01-06T04:05:23.971Z,2.30
2019-01-06T04:07:59.827Z,2.37
2019-01-06T04:10:46.212Z,2.10
2019-01-06T04:13:28.267Z,1.97
2019-01-06T04:15:58.350Z,1.50
2019-01-06T04:18:34.135Z,2.03
2019-01-06T04:21:04.385Z,2.63
2019-01-06T04:23:34.597Z,2.00
2019-01-06T04:26:22.516Z,2.53
2019-01-06T04:28:58.570Z,2.80
2019-01-06T04:31:37.621Z,2.80
2019-01-06T04:34:13.658Z,3.47
2019-01-06T04:36:59.791Z,4.20
2019-01-06T04:39:35.706Z,4.17
2019-01-06T04:42:05.792Z,2.50
2019-01-06T04:44:50.688Z,5.53
2019-01-06T04:47:23.388Z,5.50
2019-01-06T04:49:59.897Z,5.30
2019-01-06T04:52:42.731Z,4.93
2019-01-06T04:55:18.631Z,5.10
2019-01-06T04:57:51.650Z,5.40
2019-01-06T05:00:37.752Z,5.70
2019-01-06T05:03:24.048Z,5.30
2019-01-06T05:06:10.099Z,5.63
2019-01-06T05:08:56.344Z,4.37
2019-01-06T05:11:26.421Z,3.93
2019-01-06T05:14:11.336Z,3.83
2019-01-06T05:16:57.695Z,4.30
2019-01-06T05:19:39.835Z,3.90
2019-01-06T05:22:18.981Z,2.97
2019-01-06T05:25:07.007Z,3.50
2019-01-06T05:27:48.820Z,3.30
2019-01-06T05:30:27.551Z,3.00
2019-01-06T05:33:13.630Z,5.17
2019-01-06T05:35:43.725Z,3.87
2019-01-06T05:38:19.512Z,3.30
2019-01-06T05:41:04.388Z,4.90
2019-01-06T05:43:50.434Z,3.73
2019-01-06T05:46:36.522Z,3.93
2019-01-06T05:49:22.611Z,3.70
2019-01-06T05:51:58.554Z,3.60
2019-01-06T05:54:44.959Z,3.87
2019-01-06T05:57:20.999Z,3.33
2019-01-06T06:00:02.863Z,3.63
2019-01-06T06:02:39.155Z,4.03
2019-01-06T06:05:09.279Z,2.90
2019-01-06T06:07:51.089Z,3.80
2019-01-06T06:10:27.262Z,3.87
2019-01-06T06:13:00.032Z,3.80
2019-01-06T06:15:30.097Z,3.17
2019-01-06T06:18:16.064Z,4.13
2019-01-06T06:20:52.227Z,3.20
2019-01-06T06:23:28.091Z,3.27
2019-01-06T06:25:58.177Z,3.27
2019-01-06T06:28:44.549Z,3.70
2019-01-06T06:31:17.340Z,3.70
2019-01-06T06:33:53.232Z,4.00
2019-01-06T06:36:35.425Z,3.20
2019-01-06T06:39:15.689Z,3.47
2019-01-06T06:42:01.826Z,3.30
2019-01-06T06:44:46.925Z,3.30
2019-01-06T06:47:22.984Z,3.70
2019-01-06T06:49:58.743Z,3.50
2019-01-06T06:52:44.932Z,3.97
2019-01-06T06:55:26.444Z,3.47
2019-01-06T06:58:15.258Z,3.63
2019-01-06T07:00:48.540Z,4.00
2019-01-06T07:03:42.147Z,3.97
2019-01-06T07:06:28.259Z,3.77
2019-01-06T07:09:14.729Z,4.07
2019-01-06T07:11:50.856Z,2.80
2019-01-06T07:14:29.996Z,3.83
2019-01-06T07:17:52.507Z,4.40
2019-01-06T07:20:43.776Z,4.50
2019-01-06T07:23:19.707Z,3.03
2019-01-06T07:26:07.436Z,4.00
2019-01-06T07:28:53.394Z,4.00
2019-01-06T07:31:29.406Z,4.37
2019-01-06T07:34:02.203Z,3.90
2019-01-06T07:36:38.078Z,4.10
2019-01-06T07:39:14.084Z,4.67
2019-01-06T07:41:49.973Z,3.90
2019-01-06T07:44:22.995Z,3.43
2019-01-06T07:47:09.287Z,4.37
2019-01-06T07:49:45.355Z,3.67
2019-01-06T07:52:15.416Z,3.80
2019-01-06T07:54:45.563Z,3.60
2019-01-06T07:57:15.611Z,3.43
2019-01-06T07:59:48.467Z,3.60
2019-01-06T08:02:31.230Z,4.07
2019-01-06T08:05:13.220Z,4.57
2019-01-06T08:08:01.200Z,4.10
2019-01-06T08:10:49.259Z,3.80
2019-01-06T08:13:21.974Z,3.43
2019-01-06T08:16:00.731Z,4.37
2019-01-06T08:18:49.048Z,4.63
2019-01-06T08:21:22.077Z,4.63
2019-01-06T08:24:01.160Z,5.23
2019-01-06T08:26:49.122Z,4.30
2019-01-06T08:29:36.768Z,4.30
2019-01-06T08:32:09.287Z,3.80
2019-01-06T08:34:51.192Z,3.20
2019-01-06T08:37:21.284Z,3.83
2019-01-06T08:39:51.346Z,3.80
2019-01-06T08:42:29.950Z,3.83
2019-01-06T08:45:16.179Z,4.67
2019-01-06T08:47:46.232Z,3.50
2019-01-06T08:50:25.012Z,3.63
2019-01-06T08:53:00.803Z,3.63
2019-01-06T08:55:46.636Z,3.87
2019-01-06T08:58:16.836Z,3.53
2019-01-06T09:00:46.951Z,3.33
2019-01-06T09:03:26.119Z,3.00
2019-01-06T09:05:56.195Z,2.97
2019-01-06T09:08:29.236Z,2.30
2019-01-06T09:11:15.274Z,3.40
2019-01-06T09:14:00.261Z,3.50
2019-01-06T09:16:33.127Z,3.47
2019-01-06T09:19:15.039Z,3.40
2019-01-06T09:22:01.099Z,2.13
2019-01-06T09:24:37.137Z,3.03
2019-01-06T09:27:24.884Z,3.53
2019-01-06T09:30:03.923Z,3.50
2019-01-06T09:32:36.964Z,3.10
2019-01-06T09:35:23.019Z,3.40
2019-01-06T09:38:04.992Z,2.83
2019-01-06T09:40:51.283Z,3.17
2019-01-06T09:43:37.097Z,3.03
2019-01-06T09:46:16.108Z,2.70
2019-01-06T09:48:46.200Z,3.20
2019-01-06T09:51:22.064Z,2.90
2019-01-06T09:54:00.943Z,2.30
2019-01-06T09:56:33.926Z,2.17
2019-01-06T09:59:12.794Z,2.30
2019-01-06T10:01:42.842Z,3.47
2019-01-06T10:04:21.748Z,2.97
2019-01-06T10:07:03.546Z,3.37
2019-01-06T10:09:42.155Z,3.10
2019-01-06T10:12:28.489Z,5.23
2019-01-06T10:15:07.312Z,3.10
2019-01-06T10:17:53.403Z,2.73
2019-01-06T10:20:23.563Z,3.17
2019-01-06T10:22:56.111Z,2.97
2019-01-06T10:25:31.882Z,3.70
2019-01-06T10:28:01.937Z,2.67
2019-01-06T10:30:31.995Z,3.50
2019-01-06T10:33:11.146Z,2.43
2019-01-06T10:35:43.910Z,3.10
2019-01-06T10:38:16.686Z,1.57
2019-01-06T10:41:02.593Z,2.70
2019-01-06T10:43:47.906Z,2.40
2019-01-06T10:46:32.822Z,2.07
2019-01-06T10:49:02.882Z,2.70
2019-01-06T10:51:33.011Z,1.93
2019-01-06T10:54:18.230Z,3.53
2019-01-06T10:56:50.955Z,1.57
2019-01-06T10:59:37.003Z,3.50
2019-01-06T11:02:07.097Z,4.60
2019-01-06T11:04:37.155Z,3.43
2019-01-06T11:07:07.298Z,2.70
2019-01-06T11:09:52.155Z,3.33
2019-01-06T11:12:38.127Z,3.70
2019-01-06T11:15:08.275Z,2.37
2019-01-06T11:17:54.360Z,3.20
2019-01-06T11:20:40.693Z,3.80
2019-01-06T11:23:19.333Z,3.50
2019-01-06T11:26:04.496Z,3.17
2019-01-06T11:28:34.555Z,3.40
2019-01-06T11:31:20.619Z,2.63
2019-01-06T11:34:08.787Z,3.10
2019-01-06T11:36:54.704Z,3.30
2019-01-06T11:39:30.423Z,4.90
2019-01-06T11:42:16.522Z,3.80
2019-01-06T11:44:58.345Z,3.03
2019-01-06T11:47:28.436Z,2.80
2019-01-06T11:49:58.491Z,3.00
2019-01-06T11:52:43.134Z,3.30
2019-01-06T11:55:15.839Z,2.70
2019-01-06T11:58:01.804Z,2.80
2019-01-06T12:00:40.963Z,2.17
2019-01-06T12:03:11.050Z,3.80
2019-01-06T12:05:43.842Z,3.53
2019-01-06T12:08:19.666Z,2.77
2019-01-06T12:11:05.819Z,3.67
2019-01-06T12:13:44.751Z,1.80
2019-01-06T12:16:23.646Z,2.70
2019-01-06T12:18:53.695Z,2.80
2019-01-06T12:21:26.428Z,3.50
2019-01-06T12:23:56.523Z,3.50
2019-01-06T12:26:29.586Z,3.60
2019-01-06T12:29:11.497Z,3.30
2019-01-06T12:31:57.488Z,3.53
2019-01-06T12:34:45.426Z,3.63
2019-01-06T12:37:15.546Z,2.80
2019-01-06T12:39:54.094Z,3.50
2019-01-06T12:42:35.904Z,3.73
2019-01-06T12:45:15.202Z,3.80
2019-01-06T12:47:45.255Z,3.90
2019-01-06T12:50:27.385Z,4.10
2019-01-06T12:53:03.301Z,4.23
2019-01-06T12:55:33.395Z,4.20
2019-01-06T12:58:19.223Z,2.37
2019-01-06T13:00:49.294Z,3.30
2019-01-06T13:03:22.171Z,3.50
2019-01-06T13:06:04.054Z,2.80
2019-01-06T13:08:36.647Z,3.70
2019-01-06T13:11:09.458Z,3.27
2019-01-06T13:13:51.347Z,4.33
2019-01-06T13:16:23.866Z,4.10
2019-01-06T13:18:54.021Z,4.10
2019-01-06T13:21:26.824Z,3.80
2019-01-06T13:24:11.460Z,3.70
2019-01-06T13:26:44.477Z,3.30
2019-01-06T13:29:17.116Z,3.53
2019-01-06T13:31:47.228Z,4.20
2019-01-06T13:34:17.592Z,3.87
2019-01-06T13:37:03.697Z,3.30
2019-01-06T13:39:33.804Z,3.40
2019-01-06T13:42:12.932Z,3.83
2019-01-06T13:44:59.350Z,4.10
2019-01-06T13:47:45.390Z,3.60
2019-01-06T13:50:27.576Z,3.20
2019-01-06T13:53:03.566Z,3.70
2019-01-06T13:55:36.329Z,5.00
2019-01-06T13:58:06.387Z,3.70
2019-01-06T14:00:42.234Z,3.77
2019-01-06T14:03:12.318Z,4.10
2019-01-06T14:05:47.948Z,4.07
2019-01-06T14:08:33.737Z,3.60
2019-01-06T14:11:12.669Z,4.50
2019-01-06T14:13:48.494Z,4.20
2019-01-06T14:16:27.653Z,3.27
2019-01-06T14:19:03.694Z,3.17
2019-01-06T14:21:33.774Z,3.10
2019-01-06T14:24:09.932Z,2.97
2019-01-06T14:26:46.096Z,2.40
2019-01-06T14:29:32.393Z,3.23
2019-01-06T14:32:05.434Z,3.23
2019-01-06T14:34:35.495Z,3.00
2019-01-06T14:37:08.535Z,2.40
2019-01-06T14:39:56.685Z,3.60
2019-01-06T14:42:32.444Z,3.70
2019-01-06T14:45:20.135Z,3.30
2019-01-06T14:47:53.151Z,3.80
2019-01-06T14:50:39.583Z,3.90
2019-01-06T14:53:09.630Z,3.90
2019-01-06T14:55:51.229Z,3.97
2019-01-06T14:58:30.359Z,4.10
2019-01-06T15:01:00.407Z,3.60
2019-01-06T15:03:33.192Z,3.90
2019-01-06T15:06:19.339Z,3.90
2019-01-06T15:08:52.394Z,4.27
2019-01-06T15:11:38.202Z,4.40
2019-01-06T15:14:20.243Z,4.10
2019-01-06T15:16:56.269Z,4.40
2019-01-06T15:19:26.327Z,4.70
2019-01-06T15:21:56.416Z,4.30
2019-01-06T15:24:38.059Z,4.73
2019-01-06T15:27:08.683Z,4.37
2019-01-06T15:29:50.519Z,4.90
2019-01-06T15:32:36.720Z,4.87
2019-01-06T15:35:09.593Z,6.10
2019-01-06T15:37:48.385Z,4.67
2019-01-06T15:40:30.362Z,4.60
2019-01-06T15:43:00.448Z,4.70
2019-01-06T15:45:46.359Z,5.13
2019-01-06T15:48:32.424Z,4.50
2019-01-06T15:51:02.518Z,5.00
2019-01-06T15:53:40.979Z,4.90
2019-01-06T15:56:20.129Z,5.40
2019-01-06T15:59:06.159Z,4.97
2019-01-06T16:01:45.146Z,5.50
2019-01-06T16:04:24.020Z,5.10
2019-01-06T16:07:00.129Z,4.57
2019-01-06T16:09:46.502Z,4.80
2019-01-06T16:12:16.592Z,4.47
2019-01-06T16:14:55.836Z,4.67
2019-01-06T16:17:40.804Z,4.20
2019-01-06T16:20:10.855Z,4.00
2019-01-06T16:22:53.008Z,4.63
2019-01-06T16:25:25.772Z,4.47
2019-01-06T16:28:01.776Z,4.63
2019-01-06T16:30:37.335Z,4.70
2019-01-06T16:33:07.418Z,5.17
2019-01-06T16:35:37.503Z,4.27
2019-01-06T16:38:19.593Z,3.97
2019-01-06T16:41:01.459Z,5.30
2019-01-06T16:43:31.512Z,4.13
2019-01-06T16:46:10.407Z,5.20
2019-01-06T16:48:56.723Z,5.30
2019-01-06T16:51:35.372Z,4.77
2019-01-06T16:54:05.444Z,5.50
2019-01-06T16:56:41.223Z,5.50
2019-01-06T16:59:11.304Z,5.80
2019-01-06T17:01:41.364Z,5.00
2019-01-06T17:04:11.444Z,5.80
2019-01-06T17:06:44.486Z,5.77
2019-01-06T17:09:30.303Z,4.90
2019-01-06T17:12:00.385Z,5.00
2019-01-06T17:14:30.436Z,5.20
2019-01-06T17:17:00.526Z,5.03
2019-01-06T17:19:48.488Z,5.77
2019-01-06T17:22:27.240Z,5.27
2019-01-06T17:25:13.151Z,4.90
2019-01-06T17:27:48.670Z,7.00
2019-01-06T17:30:33.858Z,5.70
2019-01-06T17:33:19.787Z,7.13
2019-01-06T17:35:52.247Z,6.60
2019-01-06T17:38:31.009Z,6.47
2019-01-06T17:41:18.745Z,6.90
2019-01-06T17:44:00.601Z,7.70
2019-01-06T17:46:39.476Z,7.37
2019-01-06T17:49:25.624Z,11.00
2019-01-06T17:52:04.736Z,7.63
2019-01-06T17:54:50.667Z,7.77
2019-01-06T17:57:26.840Z,6.53
2019-01-06T17:59:59.624Z,8.10
2019-01-06T18:02:29.683Z,7.90
2019-01-06T18:05:15.518Z,7.10
2019-01-06T18:07:51.392Z,10.27
2019-01-06T18:10:30.504Z,12.40
2019-01-06T18:13:16.711Z,17.40
2019-01-06T18:15:52.733Z,17.67
2019-01-06T18:18:34.658Z,11.10
2019-01-06T18:21:21.161Z,13.60
2019-01-06T18:24:06.417Z,12.07
2019-01-06T18:26:36.907Z,12.57
2019-01-06T18:29:22.965Z,10.30
2019-01-06T18:32:11.165Z,8.47
2019-01-06T18:34:41.270Z,9.23
2019-01-06T18:37:17.419Z,9.00
2019-01-06T18:39:47.512Z,9.40
2019-01-06T18:42:33.601Z,13.70
2019-01-06T18:45:08.896Z,32.73
2019-01-06T18:47:50.426Z,15.17
2019-01-06T18:50:36.771Z,22.97
2019-01-06T18:53:23.274Z,26.07
2019-01-06T18:56:11.429Z,26.47
2019-01-06T18:58:44.187Z,17.47
2019-01-06T19:01:30.175Z,17.73
2019-01-06T19:04:16.324Z,13.60
2019-01-06T19:07:01.586Z,15.07
2019-01-06T19:09:47.545Z,13.30
2019-01-06T19:12:17.632Z,13.20
2019-01-06T19:14:53.495Z,12.20
2019-01-06T19:17:26.487Z,11.17
2019-01-06T19:20:12.466Z,10.23
2019-01-06T19:22:48.519Z,10.03
2019-01-06T19:25:24.542Z,11.17
2019-01-06T19:28:10.648Z,10.73
2019-01-06T19:30:57.024Z,11.00
2019-01-06T19:33:27.130Z,13.03
2019-01-06T19:36:02.855Z,11.10
2019-01-06T19:38:41.652Z,11.27
2019-01-06T19:41:17.423Z,10.87
2019-01-06T19:43:56.454Z,11.30
2019-01-06T19:46:35.672Z,11.67
2019-01-06T19:49:17.555Z,12.90
2019-01-06T19:51:56.348Z,12.40
2019-01-06T19:54:26.435Z,12.70
2019-01-06T19:57:05.527Z,12.70
2019-01-06T19:59:51.551Z,12.50
2019-01-06T20:02:39.653Z,13.40
2019-01-06T20:05:09.740Z,13.83
2019-01-06T20:07:42.505Z,15.50
2019-01-06T20:10:28.692Z,16.20
2019-01-06T20:13:13.481Z,14.13
2019-01-06T20:15:51.009Z,15.37
2019-01-06T20:18:30.224Z,16.10
2019-01-06T20:21:00.741Z,14.00
2019-01-06T20:23:36.930Z,22.13
2019-01-06T20:26:10.256Z,16.70
2019-01-06T20:28:43.593Z,19.77
2019-01-06T20:31:22.787Z,22.10
2019-01-06T20:33:53.246Z,19.20
2019-01-06T20:36:32.314Z,20.93
2019-01-06T20:39:11.248Z,18.97
2019-01-06T20:41:58.541Z,15.60
2019-01-06T20:44:25.663Z,14.10
2019-01-06T20:47:08.226Z,15.70
2019-01-06T20:50:00.410Z,13.97
2019-01-06T20:52:47.255Z,12.77
2019-01-06T20:55:35.219Z,13.63
2019-01-06T20:58:22.064Z,14.70
2019-01-06T21:01:08.397Z,14.40
2019-01-06T21:03:50.265Z,13.20
2019-01-06T21:06:23.608Z,13.40
2019-01-06T21:08:58.043Z,15.30
2019-01-06T21:11:31.236Z,13.00
2019-01-06T21:14:04.534Z,14.60
2019-01-06T21:16:34.932Z,14.40
2019-01-06T21:19:05.106Z,15.07
2019-01-06T21:21:37.804Z,15.30
2019-01-06T21:24:13.807Z,14.93
2019-01-06T21:27:00.372Z,16.60
2019-01-06T21:29:42.844Z,15.90
2019-01-06T21:32:29.604Z,15.37
2019-01-06T21:35:14.751Z,16.27
2019-01-06T21:37:59.924Z,16.00
2019-01-06T21:40:38.687Z,16.70
2019-01-06T21:43:11.311Z,18.00
2019-01-06T21:45:41.424Z,25.07
2019-01-06T21:48:27.523Z,22.93
2019-01-06T21:51:06.722Z,28.43
2019-01-06T21:53:36.814Z,27.87
2019-01-06T21:56:23.142Z,23.50
2019-01-06T21:58:53.198Z,22.23
2019-01-06T22:01:29.151Z,20.97
2019-01-06T22:04:02.008Z,21.20
2019-01-06T22:06:37.871Z,21.50
2019-01-06T22:09:08.694Z,20.13
2019-01-06T22:11:38.791Z,19.77
2019-01-06T22:14:24.719Z,20.80
2019-01-06T22:17:03.651Z,19.70
2019-01-06T22:19:39.552Z,19.10
2019-01-06T22:22:27.464Z,20.40
2019-01-06T22:25:06.302Z,19.90
2019-01-06T22:27:54.561Z,26.37
2019-01-06T22:30:30.456Z,20.40
2019-01-06T22:33:05.914Z,20.00
2019-01-06T22:35:42.031Z,19.47
2019-01-06T22:38:14.988Z,20.10
2019-01-06T22:40:48.035Z,19.73
2019-01-06T22:43:35.886Z,17.77
2019-01-06T22:46:14.554Z,20.20
2019-01-06T22:48:50.722Z,19.43
2019-01-06T22:51:20.837Z,20.03
2019-01-06T22:54:07.131Z,19.50
2019-01-06T22:56:53.271Z,21.57
2019-01-06T22:59:32.428Z,19.87
2019-01-06T23:02:11.566Z,18.80
2019-01-06T23:04:41.646Z,18.07
2019-01-06T23:07:27.770Z,18.30
2019-01-06T23:10:15.670Z,18.73
2019-01-06T23:12:48.252Z,19.57
2019-01-06T23:15:23.984Z,19.97
2019-01-06T23:18:02.604Z,18.50
2019-01-06T23:20:32.687Z,21.97
2019-01-06T23:23:18.582Z,19.50
2019-01-06T23:25:48.699Z,24.70
2019-01-06T23:28:18.745Z,21.47
2019-01-06T23:31:03.866Z,21.07
2019-01-06T23:33:33.943Z,21.10
2019-01-06T23:36:12.863Z,17.70
2019-01-06T23:38:59.232Z,17.97
2019-01-06T23:41:29.290Z,18.03
2019-01-06T23:44:11.327Z,19.73
2019-01-06T23:46:41.391Z,18.63
2019-01-06T23:49:17.275Z,19.30
2019-01-06T23:52:03.215Z,17.90
2019-01-06T23:54:42.003Z,19.97
2019-01-06T23:57:17.598Z,24.00
2019-01-06T23:59:59.256Z,23.00
